createdAt,value
2017-05-24T00:01:19.593Z,4.90
2017-05-24T00:03:47.417Z,3.70
2017-05-24T00:06:14.285Z,3.96
2017-05-24T00:08:41.149Z,5.20
2017-05-24T00:11:08.045Z,4.74
2017-05-24T00:13:36.964Z,8.36
2017-05-24T00:16:04.837Z,5.98
2017-05-24T00:18:32.679Z,4.52
2017-05-24T00:21:03.333Z,5.24
2017-05-24T00:23:33.333Z,5.14
2017-05-24T00:26:00.153Z,5.74
2017-05-24T00:28:31.205Z,5.86
2017-05-24T00:31:01.445Z,8.64
2017-05-24T00:33:29.280Z,10.74
2017-05-24T00:35:56.113Z,7.34
2017-05-24T00:38:23.060Z,6.90
2017-05-24T00:40:51.976Z,5.92
2017-05-24T00:43:18.813Z,5.68
2017-05-24T00:45:45.656Z,6.52
2017-05-24T00:48:12.492Z,5.38
2017-05-24T00:50:39.326Z,5.60
2017-05-24T00:53:06.225Z,6.48
2017-05-24T00:55:37.728Z,6.78
2017-05-24T00:58:06.616Z,5.92
2017-05-24T01:00:33.440Z,5.12
2017-05-24T01:03:01.237Z,6.30
2017-05-24T01:05:31.993Z,7.36
2017-05-24T01:07:58.772Z,5.40
2017-05-24T01:10:25.616Z,5.22
2017-05-24T01:12:53.544Z,6.78
2017-05-24T01:15:20.464Z,4.92
2017-05-24T01:17:50.564Z,19.92
2017-05-24T01:20:17.455Z,5.76
2017-05-24T01:22:46.316Z,6.88
2017-05-24T01:25:13.136Z,7.40
2017-05-24T01:27:42.045Z,6.72
2017-05-24T01:30:08.900Z,6.72
2017-05-24T01:32:36.682Z,7.92
2017-05-24T01:35:03.620Z,6.10
2017-05-24T01:37:32.495Z,6.46
2017-05-24T01:39:59.580Z,6.82
2017-05-24T01:42:26.463Z,5.32
2017-05-24T01:44:56.803Z,5.12
2017-05-24T01:47:23.635Z,4.24
2017-05-24T01:49:50.532Z,4.80
2017-05-24T01:52:20.816Z,5.00
2017-05-24T01:54:48.663Z,4.68
2017-05-24T01:57:16.572Z,4.52
2017-05-24T01:59:46.948Z,6.28
2017-05-24T02:02:13.792Z,6.74
2017-05-24T02:04:40.679Z,5.70
2017-05-24T02:07:10.963Z,7.06
2017-05-24T02:09:41.292Z,12.38
2017-05-24T02:12:08.195Z,4.62
2017-05-24T02:14:36.099Z,4.48
2017-05-24T02:17:05.964Z,4.60
2017-05-24T02:19:32.755Z,5.34
2017-05-24T02:21:59.587Z,5.18
2017-05-24T02:24:26.483Z,5.40
2017-05-24T02:26:53.411Z,8.56
2017-05-24T02:29:20.232Z,5.92
2017-05-24T02:31:54.135Z,6.80
2017-05-24T02:34:24.156Z,6.88
2017-05-24T02:36:52.027Z,5.02
2017-05-24T02:39:19.903Z,9.58
2017-05-24T02:41:47.867Z,4.94
2017-05-24T02:44:14.675Z,5.40
2017-05-24T02:46:43.639Z,3.88
2017-05-24T02:49:10.531Z,4.44
2017-05-24T02:51:39.411Z,10.64
2017-05-24T02:54:07.319Z,7.06
2017-05-24T02:56:34.231Z,3.02
2017-05-24T02:59:01.063Z,4.02
2017-05-24T03:01:28.934Z,2.40
2017-05-24T03:03:56.794Z,3.74
2017-05-24T03:06:23.611Z,3.02
2017-05-24T03:08:50.466Z,7.62
2017-05-24T03:11:17.335Z,5.42
2017-05-24T03:13:44.171Z,3.84
2017-05-24T03:16:11.003Z,4.40
2017-05-24T03:18:37.844Z,3.90
2017-05-24T03:21:04.675Z,4.60
2017-05-24T03:23:31.543Z,5.92
2017-05-24T03:25:58.382Z,4.22
2017-05-24T03:28:25.199Z,4.36
2017-05-24T03:30:52.059Z,2.70
2017-05-24T03:33:18.882Z,4.98
2017-05-24T03:35:46.755Z,4.38
2017-05-24T03:38:13.611Z,2.68
2017-05-24T03:40:40.435Z,3.88
2017-05-24T03:43:07.291Z,6.36
2017-05-24T03:45:34.150Z,5.00
2017-05-24T03:48:00.958Z,3.90
2017-05-24T03:50:27.786Z,1.88
2017-05-24T03:52:54.674Z,6.56
2017-05-24T03:55:21.502Z,2.32
2017-05-24T03:57:48.339Z,3.92
2017-05-24T04:00:15.226Z,4.32
2017-05-24T04:02:42.119Z,3.46
2017-05-24T04:05:08.954Z,5.16
2017-05-24T04:07:35.854Z,4.86
2017-05-24T04:10:02.766Z,2.72
2017-05-24T04:12:29.587Z,2.58
2017-05-24T04:14:56.542Z,4.12
2017-05-24T04:17:24.395Z,7.70
2017-05-24T04:19:51.238Z,2.54
2017-05-24T04:22:18.087Z,3.14
2017-05-24T04:24:45.030Z,4.72
2017-05-24T04:27:11.878Z,2.16
2017-05-24T04:29:38.814Z,4.22
2017-05-24T04:32:05.682Z,4.26
2017-05-24T04:34:33.654Z,2.94
2017-05-24T04:37:00.598Z,5.56
2017-05-24T04:39:27.526Z,2.42
2017-05-24T04:41:54.368Z,3.62
2017-05-24T04:44:21.330Z,1.98
2017-05-24T04:46:48.173Z,5.22
2017-05-24T04:49:14.978Z,5.23
2017-05-24T04:51:42.877Z,2.78
2017-05-24T04:54:09.695Z,1.80
2017-05-24T04:56:36.534Z,5.22
2017-05-24T04:59:03.421Z,3.92
2017-05-24T05:01:30.409Z,4.10
2017-05-24T05:03:57.282Z,4.10
2017-05-24T05:06:24.121Z,3.00
2017-05-24T05:08:50.942Z,6.70
2017-05-24T05:11:17.790Z,4.24
2017-05-24T05:13:44.669Z,3.74
2017-05-24T05:16:11.522Z,4.64
2017-05-24T05:18:39.393Z,5.86
2017-05-24T05:21:06.309Z,7.00
2017-05-24T05:23:33.249Z,3.52
2017-05-24T05:26:15.049Z,3.12
2017-05-24T05:28:41.906Z,4.12
2017-05-24T05:31:08.825Z,3.06
2017-05-24T05:33:35.649Z,4.68
2017-05-24T05:36:03.537Z,4.18
2017-05-24T05:38:30.353Z,4.42
2017-05-24T05:40:57.225Z,4.76
2017-05-24T05:43:24.041Z,4.46
2017-05-24T05:45:50.885Z,4.92
2017-05-24T05:48:17.761Z,4.38
2017-05-24T05:50:44.582Z,5.32
2017-05-24T05:53:11.461Z,3.14
2017-05-24T05:55:38.352Z,3.98
2017-05-24T05:58:05.213Z,6.46
2017-05-24T06:00:32.045Z,4.16
2017-05-24T06:02:58.881Z,6.06
2017-05-24T06:05:25.729Z,3.92
2017-05-24T06:07:52.561Z,5.26
2017-05-24T06:10:19.481Z,6.36
2017-05-24T06:12:46.289Z,6.30
2017-05-24T06:15:13.060Z,4.26
2017-05-24T06:17:39.925Z,4.48
2017-05-24T06:20:06.821Z,6.30
2017-05-24T06:22:34.420Z,3.16
2017-05-24T06:25:01.280Z,4.36
2017-05-24T06:27:28.088Z,3.90
2017-05-24T06:29:54.868Z,5.58
2017-05-24T06:32:21.640Z,4.64
2017-05-24T06:34:48.405Z,3.68
2017-05-24T06:37:15.192Z,6.34
2017-05-24T06:39:42.001Z,6.40
2017-05-24T06:42:08.777Z,5.46
2017-05-24T06:44:35.560Z,5.06
2017-05-24T06:47:02.373Z,5.92
2017-05-24T06:49:29.188Z,4.42
2017-05-24T06:51:56.033Z,2.28
2017-05-24T06:54:22.896Z,5.08
2017-05-24T06:56:49.704Z,5.54
2017-05-24T06:59:16.544Z,5.24
2017-05-24T07:01:43.373Z,3.02
2017-05-24T07:04:10.182Z,6.06
2017-05-24T07:06:51.969Z,2.48
2017-05-24T07:09:18.752Z,3.18
2017-05-24T07:11:45.572Z,2.88
2017-05-24T07:14:12.426Z,2.44
2017-05-24T07:16:39.232Z,1.56
2017-05-24T07:19:06.003Z,6.52
2017-05-24T07:21:32.780Z,3.62
2017-05-24T07:23:59.607Z,3.06
2017-05-24T07:26:26.369Z,2.80
2017-05-24T07:28:53.188Z,3.68
2017-05-24T07:31:19.944Z,5.04
2017-05-24T07:33:46.768Z,2.68
2017-05-24T07:36:13.611Z,1.72
2017-05-24T07:38:40.396Z,4.50
2017-05-24T07:41:07.172Z,4.32
2017-05-24T07:43:33.975Z,8.66
2017-05-24T07:46:00.758Z,9.02
2017-05-24T07:48:27.535Z,7.88
2017-05-24T07:50:54.575Z,6.24
2017-05-24T07:53:21.352Z,3.26
2017-05-24T07:55:48.127Z,3.32
2017-05-24T07:58:14.932Z,3.74
2017-05-24T08:00:41.699Z,4.38
2017-05-24T08:03:08.499Z,8.66
2017-05-24T08:05:35.311Z,6.44
2017-05-24T08:08:02.104Z,2.44
2017-05-24T08:10:28.872Z,6.60
2017-05-24T08:12:55.670Z,8.24
2017-05-24T08:15:22.447Z,4.02
2017-05-24T08:17:49.223Z,1.44
2017-05-24T08:20:16.019Z,6.32
2017-05-24T08:22:42.783Z,5.18
2017-05-24T08:25:09.574Z,2.36
2017-05-24T08:27:36.406Z,1.98
2017-05-24T08:30:03.191Z,3.56
2017-05-24T08:32:29.967Z,6.76
2017-05-24T08:34:56.743Z,5.10
2017-05-24T08:37:23.538Z,3.24
2017-05-24T08:39:50.378Z,4.00
2017-05-24T08:55:09.752Z,2.24
2017-05-24T08:57:38.519Z,6.26
2017-05-24T09:00:07.279Z,2.92
2017-05-24T09:02:36.068Z,2.58
2017-05-24T09:05:04.849Z,3.00
2017-05-24T09:07:33.607Z,4.82
2017-05-24T09:10:02.383Z,4.34
2017-05-24T09:12:31.142Z,2.70
2017-05-24T09:14:59.907Z,5.62
2017-05-24T09:17:28.710Z,5.10
2017-05-24T09:19:57.471Z,2.50
2017-05-24T09:22:26.242Z,4.74
2017-05-24T09:24:55.127Z,9.52
2017-05-24T09:27:23.862Z,5.90
2017-05-24T09:29:53.571Z,3.60
2017-05-24T09:32:22.350Z,2.42
2017-05-24T09:34:51.119Z,3.22
2017-05-24T09:37:19.878Z,4.60
2017-05-24T09:39:48.694Z,3.82
2017-05-24T09:42:17.466Z,7.60
2017-05-24T09:44:46.222Z,5.58
2017-05-24T09:47:15.030Z,6.00
2017-05-24T09:49:43.792Z,2.04
2017-05-24T09:52:12.542Z,3.50
2017-05-24T09:54:41.314Z,3.32
2017-05-24T09:57:10.082Z,5.12
2017-05-24T09:59:38.846Z,3.28
2017-05-24T10:02:07.638Z,1.84
2017-05-24T10:04:36.406Z,3.62
2017-05-24T10:07:05.170Z,2.58
2017-05-24T10:09:33.948Z,1.54
2017-05-24T10:12:02.718Z,4.34
2017-05-24T10:14:31.482Z,2.78
2017-05-24T10:17:00.282Z,2.68
2017-05-24T10:19:29.058Z,2.72
2017-05-24T10:21:57.849Z,5.94
2017-05-24T10:24:26.625Z,4.10
2017-05-24T10:26:55.417Z,1.58
2017-05-24T10:29:24.202Z,1.78
2017-05-24T10:31:52.969Z,2.00
2017-05-24T10:34:21.727Z,3.16
2017-05-24T10:36:50.493Z,1.76
2017-05-24T10:39:19.359Z,3.88
2017-05-24T10:41:53.822Z,2.06
2017-05-24T10:44:22.569Z,1.84
2017-05-24T10:46:51.330Z,2.92
2017-05-24T10:49:20.094Z,2.56
2017-05-24T10:51:48.881Z,2.08
2017-05-24T10:54:17.654Z,5.42
2017-05-24T10:56:46.429Z,5.68
2017-05-24T10:59:15.197Z,2.72
2017-05-24T11:01:43.969Z,3.68
2017-05-24T11:04:12.737Z,6.02
2017-05-24T11:06:41.525Z,2.52
2017-05-24T11:09:10.285Z,3.96
2017-05-24T11:11:39.057Z,4.80
2017-05-24T11:14:07.861Z,3.18
2017-05-24T11:16:36.677Z,7.24
2017-05-24T11:19:05.443Z,4.16
2017-05-24T11:21:34.228Z,4.36
2017-05-24T11:24:03.005Z,6.20
2017-05-24T11:26:31.781Z,3.22
2017-05-24T11:29:00.576Z,12.48
2017-05-24T11:31:29.648Z,1.26
2017-05-24T11:33:58.408Z,4.56
2017-05-24T11:36:27.189Z,2.28
2017-05-24T11:38:55.953Z,2.96
2017-05-24T11:41:24.744Z,4.06
2017-05-24T11:43:53.532Z,2.94
2017-05-24T11:46:22.300Z,8.32
2017-05-24T11:48:51.073Z,2.92
2017-05-24T11:51:19.853Z,9.00
2017-05-24T11:53:48.613Z,2.52
2017-05-24T11:56:17.381Z,5.88
2017-05-24T11:58:46.179Z,7.98
2017-05-24T12:01:14.945Z,5.76
2017-05-24T12:03:43.712Z,4.44
2017-05-24T12:06:12.511Z,2.56
2017-05-24T12:08:41.285Z,4.60
2017-05-24T12:11:10.060Z,2.82
2017-05-24T12:13:38.852Z,4.92
2017-05-24T12:16:07.648Z,4.96
2017-05-24T12:18:36.452Z,2.72
2017-05-24T12:21:05.240Z,2.90
2017-05-24T12:23:34.013Z,3.58
2017-05-24T12:26:02.784Z,4.40
2017-05-24T12:28:31.576Z,4.12
2017-05-24T12:31:00.348Z,6.48
2017-05-24T12:33:29.124Z,6.30
2017-05-24T12:35:57.899Z,5.48
2017-05-24T12:38:26.672Z,3.68
2017-05-24T12:40:55.436Z,3.58
2017-05-24T12:43:24.221Z,3.84
2017-05-24T12:45:53.000Z,5.28
2017-05-24T12:48:21.760Z,3.56
2017-05-24T12:50:50.547Z,6.06
2017-05-24T12:53:19.312Z,4.04
2017-05-24T12:55:48.088Z,5.70
2017-05-24T12:58:16.868Z,5.84
2017-05-24T13:00:45.635Z,7.50
2017-05-24T13:03:14.408Z,6.32
2017-05-24T13:05:43.192Z,1.98
2017-05-24T13:08:11.980Z,5.38
2017-05-24T13:10:40.755Z,8.20
2017-05-24T13:13:09.539Z,2.48
2017-05-24T13:15:38.319Z,3.06
2017-05-24T13:18:07.099Z,4.70
2017-05-24T13:20:35.883Z,3.50
2017-05-24T13:23:04.655Z,2.86
2017-05-24T13:25:33.419Z,3.86
2017-05-24T13:28:02.207Z,2.58
2017-05-24T13:30:30.987Z,2.64
2017-05-24T13:32:59.760Z,7.28
2017-05-24T13:35:28.535Z,5.16
2017-05-24T13:37:57.400Z,7.66
2017-05-24T13:40:26.131Z,8.08
2017-05-24T13:42:54.911Z,3.66
2017-05-24T13:45:23.675Z,2.92
2017-05-24T13:47:52.435Z,4.50
2017-05-24T13:50:21.214Z,2.82
2017-05-24T13:52:49.987Z,7.28
2017-05-24T13:55:18.751Z,4.24
2017-05-24T13:57:47.526Z,4.40
2017-05-24T14:00:16.291Z,5.20
2017-05-24T14:02:45.058Z,3.34
2017-05-24T14:05:13.827Z,3.74
2017-05-24T14:07:42.600Z,5.98
2017-05-24T14:10:11.387Z,4.98
2017-05-24T14:12:40.155Z,5.16
2017-05-24T14:15:08.919Z,4.56
2017-05-24T14:17:37.700Z,4.32
2017-05-24T14:20:06.458Z,4.86
2017-05-24T14:22:35.219Z,4.70
2017-05-24T14:25:03.994Z,3.40
2017-05-24T14:27:32.843Z,4.94
2017-05-24T14:30:01.583Z,4.78
2017-05-24T14:32:30.347Z,3.94
2017-05-24T14:34:59.123Z,7.46
2017-05-24T14:37:27.891Z,4.72
2017-05-24T14:39:56.655Z,3.80
2017-05-24T14:42:25.430Z,2.58
2017-05-24T14:44:54.194Z,3.20
2017-05-24T14:47:23.038Z,2.74
2017-05-24T14:49:51.826Z,5.04
2017-05-24T14:52:20.570Z,2.72
2017-05-24T14:54:49.351Z,4.42
2017-05-24T14:57:18.160Z,5.50
2017-05-24T14:59:46.926Z,3.70
2017-05-24T15:02:15.695Z,5.96
2017-05-24T15:04:44.484Z,7.88
2017-05-24T15:07:13.255Z,4.60
2017-05-24T15:09:42.018Z,9.12
2017-05-24T15:12:10.787Z,4.64
2017-05-24T15:14:39.550Z,3.26
2017-05-24T15:17:08.319Z,2.64
2017-05-24T15:19:37.102Z,4.86
2017-05-24T15:22:05.939Z,9.62
2017-05-24T15:24:34.633Z,5.56
2017-05-24T15:27:03.413Z,3.56
2017-05-24T15:29:32.183Z,5.68
2017-05-24T15:32:00.954Z,7.74
2017-05-24T15:34:29.725Z,6.12
2017-05-24T15:36:59.386Z,4.30
2017-05-24T15:39:28.158Z,3.72
2017-05-24T15:41:56.950Z,4.34
2017-05-24T15:44:25.718Z,7.78
2017-05-24T15:46:54.486Z,5.04
2017-05-24T15:49:23.274Z,6.96
2017-05-24T15:51:52.042Z,3.80
2017-05-24T15:54:20.803Z,4.36
2017-05-24T15:56:49.578Z,5.40
2017-05-24T15:59:18.346Z,5.26
2017-05-24T16:01:47.114Z,4.94
2017-05-24T16:04:15.897Z,4.12
2017-05-24T16:06:44.661Z,3.70
2017-05-24T16:09:13.434Z,7.02
2017-05-24T16:11:42.337Z,6.08
2017-05-24T16:14:11.101Z,3.16
2017-05-24T16:16:39.882Z,4.30
2017-05-24T16:19:08.693Z,5.86
2017-05-24T16:21:37.461Z,5.38
2017-05-24T16:24:06.225Z,5.90
2017-05-24T16:26:35.013Z,5.64
2017-05-24T16:29:03.777Z,4.36
2017-05-24T16:31:32.545Z,4.66
2017-05-24T16:34:01.322Z,6.06
2017-05-24T16:36:30.089Z,5.50
2017-05-24T16:38:58.857Z,4.46
2017-05-24T16:41:27.634Z,3.68
2017-05-24T16:43:56.398Z,3.62
2017-05-24T16:46:25.164Z,6.76
2017-05-24T16:48:54.929Z,3.62
2017-05-24T16:51:23.697Z,5.86
2017-05-24T16:53:52.465Z,5.34
2017-05-24T16:56:21.241Z,4.96
2017-05-24T16:58:50.010Z,4.82
2017-05-24T17:01:18.798Z,3.82
2017-05-24T17:03:47.573Z,4.40
2017-05-24T17:06:16.341Z,3.06
2017-05-24T17:08:45.146Z,4.34
2017-05-24T17:11:13.928Z,5.28
2017-05-24T17:13:42.700Z,7.76
2017-05-24T17:16:11.476Z,5.34
2017-05-24T17:18:40.257Z,4.68
2017-05-24T17:21:09.024Z,6.02
2017-05-24T17:23:37.816Z,4.76
2017-05-24T17:26:06.608Z,3.88
2017-05-24T17:28:35.357Z,9.02
2017-05-24T17:31:04.124Z,6.12
2017-05-24T17:33:32.920Z,4.44
2017-05-24T17:36:01.688Z,11.20
2017-05-24T17:38:30.464Z,4.98
2017-05-24T17:41:01.212Z,6.86
2017-05-24T17:43:29.992Z,8.14
2017-05-24T17:45:58.757Z,6.32
2017-05-24T17:48:27.540Z,5.28
2017-05-24T17:50:57.268Z,8.72
2017-05-24T17:53:26.041Z,6.56
2017-05-24T17:55:54.820Z,8.16
2017-05-24T18:01:01.652Z,8.12
2017-05-24T18:03:30.421Z,6.88
2017-05-24T18:06:00.140Z,10.34
2017-05-24T18:08:28.960Z,9.70
2017-05-24T18:10:57.728Z,6.84
2017-05-24T18:13:26.499Z,7.38
2017-05-24T18:15:55.339Z,11.24
2017-05-24T18:18:24.108Z,6.16
2017-05-24T18:20:52.875Z,7.14
2017-05-24T18:23:20.912Z,8.22
2017-05-24T18:25:49.680Z,9.66
2017-05-24T18:28:18.460Z,6.42
2017-05-24T18:30:47.260Z,10.00
2017-05-24T18:33:16.047Z,13.08
2017-05-24T18:35:44.828Z,7.00
2017-05-24T18:38:13.631Z,10.08
2017-05-24T18:40:42.418Z,6.78
2017-05-24T18:43:11.189Z,10.06
2017-05-24T18:45:39.988Z,5.70
2017-05-24T18:48:08.771Z,7.32
2017-05-24T18:50:37.843Z,6.00
2017-05-24T18:53:07.140Z,10.16
2017-05-24T18:55:35.883Z,9.38
2017-05-24T18:58:04.667Z,12.72
2017-05-24T19:00:33.455Z,9.64
2017-05-24T19:03:02.228Z,12.68
2017-05-24T19:05:31.000Z,10.36
2017-05-24T19:08:00.327Z,10.86
2017-05-24T19:10:29.131Z,11.72
2017-05-24T19:12:57.920Z,11.98
2017-05-24T19:15:26.747Z,13.62
2017-05-24T19:17:54.760Z,17.82
2017-05-24T19:20:23.539Z,13.04
2017-05-24T19:22:52.345Z,15.02
2017-05-24T19:25:21.123Z,15.36
2017-05-24T19:27:49.908Z,13.90
2017-05-24T19:30:19.607Z,15.04
2017-05-24T19:32:48.390Z,15.44
2017-05-24T19:35:17.186Z,16.48
2017-05-24T19:37:45.983Z,16.52
2017-05-24T19:40:14.759Z,15.30
2017-05-24T19:42:43.551Z,15.58
2017-05-24T19:45:12.335Z,16.98
2017-05-24T19:47:41.115Z,16.08
2017-05-24T19:50:09.884Z,17.00
2017-05-24T19:52:38.674Z,16.28
2017-05-24T19:55:07.454Z,15.36
2017-05-24T19:57:36.251Z,17.44
2017-05-24T20:00:05.046Z,15.48
2017-05-24T20:02:33.827Z,19.64
2017-05-24T20:05:02.618Z,18.28
2017-05-24T20:07:31.418Z,18.34
2017-05-24T20:10:00.194Z,18.46
2017-05-24T20:12:28.986Z,18.56
2017-05-24T20:14:57.790Z,18.94
2017-05-24T20:17:26.570Z,17.66
2017-05-24T20:19:55.348Z,19.20
2017-05-24T20:22:24.130Z,19.40
2017-05-24T20:24:52.910Z,19.02
2017-05-24T20:27:21.711Z,19.66
2017-05-24T20:29:50.526Z,19.60
2017-05-24T20:32:19.306Z,18.18
2017-05-24T20:34:48.102Z,19.34
2017-05-24T20:37:16.890Z,19.50
2017-05-24T20:39:45.674Z,20.56
2017-05-24T20:42:14.462Z,20.27
2017-05-24T20:44:44.154Z,18.96
2017-05-24T20:47:12.947Z,19.03
2017-05-24T20:49:41.734Z,21.78
2017-05-24T20:52:10.525Z,19.82
2017-05-24T20:54:39.302Z,21.48
2017-05-24T20:57:08.129Z,22.26
2017-05-24T20:59:36.895Z,19.62
2017-05-24T21:02:05.670Z,19.53
2017-05-24T21:04:34.462Z,23.20
2017-05-24T21:07:03.247Z,20.23
2017-05-24T21:09:32.035Z,20.92
2017-05-24T21:12:00.817Z,19.48
2017-05-24T21:14:29.606Z,21.38
2017-05-24T21:16:58.390Z,20.82
2017-05-24T21:19:27.166Z,21.18
2017-05-24T21:21:55.986Z,21.47
2017-05-24T21:24:24.782Z,23.33
2017-05-24T21:26:53.577Z,22.48
2017-05-24T21:29:22.378Z,21.23
2017-05-24T21:31:52.157Z,21.50
2017-05-24T21:34:20.950Z,18.13
2017-05-24T21:36:50.473Z,20.62
2017-05-24T21:39:19.266Z,21.60
2017-05-24T21:41:48.089Z,28.23
2017-05-24T21:44:17.066Z,20.68
2017-05-24T21:46:45.969Z,18.96
2017-05-24T21:49:14.845Z,19.13
2017-05-24T21:51:43.709Z,21.03
2017-05-24T21:54:12.618Z,22.97
2017-05-24T21:56:41.477Z,26.17
2017-05-24T21:59:10.345Z,26.13
2017-05-24T22:01:39.152Z,23.13
2017-05-24T22:04:07.953Z,20.35
2017-05-24T22:06:36.921Z,21.85
2017-05-24T22:09:05.776Z,19.77
2017-05-24T22:11:34.601Z,20.30
2017-05-24T22:14:04.429Z,20.70
2017-05-24T22:16:33.276Z,19.58
2017-05-24T22:19:02.089Z,21.07
2017-05-24T22:21:30.997Z,22.15
2017-05-24T22:23:59.793Z,18.02
2017-05-24T22:26:28.585Z,15.62
2017-05-24T22:28:57.433Z,32.32
2017-05-24T22:31:27.229Z,16.98
2017-05-24T22:33:56.962Z,22.02
2017-05-24T22:36:25.750Z,20.65
2017-05-24T22:38:54.584Z,16.87
2017-05-24T22:41:23.510Z,17.60
2017-05-24T22:43:52.337Z,18.78
2017-05-24T22:46:21.145Z,18.50
2017-05-24T22:48:50.028Z,19.93
2017-05-24T22:51:18.104Z,20.35
2017-05-24T22:53:46.924Z,18.90
2017-05-24T22:56:15.784Z,20.40
2017-05-24T22:58:44.605Z,24.87
2017-05-24T23:01:13.472Z,20.10
2017-05-24T23:03:42.317Z,20.52
2017-05-24T23:06:11.128Z,18.60
2017-05-24T23:08:39.925Z,18.13
2017-05-24T23:11:08.800Z,19.18
2017-05-24T23:13:36.860Z,17.52
2017-05-24T23:16:05.740Z,16.50
2017-05-24T23:18:34.567Z,17.23
2017-05-24T23:21:03.396Z,13.50
2017-05-24T23:23:32.240Z,14.03
2017-05-24T23:26:01.024Z,16.98
2017-05-24T23:28:29.852Z,16.90
2017-05-24T23:30:58.656Z,17.85
2017-05-24T23:33:27.555Z,16.37
2017-05-24T23:35:56.356Z,18.92
2017-05-24T23:38:25.240Z,19.50
2017-05-24T23:40:54.091Z,17.20
2017-05-24T23:43:22.948Z,18.43
2017-05-24T23:45:51.892Z,14.37
2017-05-24T23:48:21.127Z,15.35
2017-05-24T23:50:49.204Z,15.33
2017-05-24T23:53:18.038Z,14.22
2017-05-24T23:55:46.967Z,16.07
2017-05-24T23:58:15.760Z,17.32
